Peggy, Texas
Current Conditions -  °F | °C
As of 1:55 PM on Monday 22 Dec 2014 (Local Time) from KPEZ Reporting Station
Clear Clear  
Wind Chill: 68°   Ceiling: Unl
Heat Index: 68°   Visibility: 10mi
Dew Point: 55°   Wind: 6mph
Humidity: 63%   Direction: 210°SSW
Pressure: 29.69"   Gusts: NA
Location:  28.74°N, 98.18°W
Report Text: KPEZ 221955Z AUTO 21005KT 10SM CLR 20/13 A2969 RMK AO2 T02010129
Loading
Personal Weather Stations






























Interactive Weather Map New forecast layout! Learn more

10-Day Weather Forecast

Advertisements
Track Severe Weather on mobile